createdAt,value
2023-03-12T00:02:25.155Z,1.70
2023-03-12T00:05:28.880Z,1.77
2023-03-12T00:08:31.488Z,1.80
2023-03-12T00:11:34.142Z,2.42
2023-03-12T00:14:37.088Z,3.53
2023-03-12T00:17:39.707Z,2.95
2023-03-12T00:20:42.234Z,2.45
2023-03-12T00:23:48.180Z,3.72
2023-03-12T00:26:50.749Z,2.15
2023-03-12T00:29:53.831Z,6.90
2023-03-12T00:32:56.495Z,2.63
2023-03-12T00:36:00.570Z,8.90
2023-03-12T00:39:03.457Z,12.07
2023-03-12T00:42:06.166Z,5.03
2023-03-12T00:45:09.275Z,15.43
2023-03-12T00:48:11.990Z,15.10
2023-03-12T00:51:14.884Z,2.42
2023-03-12T00:54:17.606Z,3.08
2023-03-12T00:57:20.496Z,2.92
2023-03-12T01:00:24.133Z,2.92
2023-03-12T01:03:26.800Z,3.10
2023-03-12T01:06:29.424Z,2.72
2023-03-12T01:09:35.291Z,4.20
2023-03-12T01:12:37.935Z,2.63
2023-03-12T01:15:40.527Z,2.95
2023-03-12T01:18:43.101Z,3.15
2023-03-12T01:21:45.676Z,2.58
2023-03-12T01:24:48.660Z,3.13
2023-03-12T01:27:51.345Z,2.47
2023-03-12T01:30:54.092Z,2.45
2023-03-12T01:33:59.488Z,2.78
2023-03-12T01:37:02.620Z,3.30
2023-03-12T01:40:06.106Z,2.10
2023-03-12T01:43:31.701Z,2.15
2023-03-12T01:46:37.041Z,2.28
2023-03-12T01:49:45.728Z,1.30
2023-03-12T01:52:48.797Z,1.75
2023-03-12T01:55:51.703Z,3.25
2023-03-12T01:58:56.739Z,2.05
2023-03-12T02:01:59.882Z,1.95
2023-03-12T02:05:15.139Z,2.03
2023-03-12T02:08:18.351Z,2.65
2023-03-12T02:11:21.116Z,2.47
2023-03-12T02:14:23.888Z,2.53
2023-03-12T02:17:26.777Z,2.60
2023-03-12T02:20:40.384Z,9.35
2023-03-12T02:23:52.070Z,3.00
2023-03-12T02:26:54.870Z,2.33
2023-03-12T02:29:57.642Z,2.17
2023-03-12T02:33:03.497Z,2.10
2023-03-12T02:36:06.382Z,2.20
2023-03-12T02:39:11.464Z,1.77
2023-03-12T02:42:14.729Z,1.73
2023-03-12T02:45:17.978Z,2.00
2023-03-12T02:48:21.234Z,2.72
2023-03-12T02:51:23.800Z,2.30
2023-03-12T02:54:26.735Z,1.70
2023-03-12T02:57:29.809Z,2.40
2023-03-12T03:00:32.731Z,2.40
2023-03-12T03:03:35.728Z,1.58
2023-03-12T03:06:40.413Z,2.15
2023-03-12T03:09:43.042Z,2.05
2023-03-12T03:12:45.915Z,2.10
2023-03-12T03:15:48.868Z,2.30
2023-03-12T03:18:51.621Z,2.85
2023-03-12T03:21:54.213Z,2.13
2023-03-12T03:24:56.840Z,2.03
2023-03-12T03:27:59.309Z,2.15
2023-03-12T03:31:02.419Z,1.75
2023-03-12T03:34:08.750Z,1.95
2023-03-12T03:37:11.441Z,2.45
2023-03-12T03:40:14.620Z,2.60
2023-03-12T03:43:17.261Z,2.58
2023-03-12T03:46:20.863Z,1.85
2023-03-12T03:49:29.221Z,2.22
2023-03-12T03:52:32.446Z,2.42
2023-03-12T03:55:39.947Z,2.40
2023-03-12T03:58:43.860Z,1.95
2023-03-12T04:01:46.817Z,2.00
2023-03-12T04:04:50.017Z,1.85
2023-03-12T04:07:53.864Z,1.75
2023-03-12T04:10:59.205Z,2.90
2023-03-12T04:14:02.023Z,2.50
2023-03-12T04:17:08.330Z,2.03
2023-03-12T04:20:11.908Z,2.63
2023-03-12T04:23:16.700Z,2.15
2023-03-12T04:26:19.389Z,3.00
2023-03-12T04:29:21.997Z,2.15
2023-03-12T04:32:24.748Z,3.88
2023-03-12T04:35:28.346Z,1.88
2023-03-12T04:38:31.980Z,2.90
2023-03-12T04:41:35.961Z,2.25
2023-03-12T04:44:52.876Z,2.55
2023-03-12T04:50:58.950Z,1.80
2023-03-12T04:54:01.657Z,2.97
2023-03-12T04:57:04.504Z,2.40
2023-03-12T05:00:11.308Z,1.80
2023-03-12T05:03:14.722Z,1.65
2023-03-12T05:06:17.893Z,2.92
2023-03-12T05:09:20.700Z,2.45
2023-03-12T05:12:23.902Z,3.00
2023-03-12T05:15:27.134Z,2.22
2023-03-12T05:18:30.075Z,2.45
2023-03-12T05:21:33.491Z,3.15
2023-03-12T05:24:36.086Z,3.42
2023-03-12T05:27:38.829Z,2.40
2023-03-12T05:30:41.571Z,2.50
2023-03-12T05:33:44.830Z,2.03
2023-03-12T05:36:47.677Z,1.95
2023-03-12T05:39:55.439Z,2.42
2023-03-12T05:42:58.171Z,2.78
2023-03-12T05:46:04.200Z,2.20
2023-03-12T05:49:08.973Z,2.78
2023-03-12T05:52:12.295Z,2.63
2023-03-12T05:55:15.404Z,2.97
2023-03-12T05:58:19.342Z,2.67
2023-03-12T06:01:25.076Z,2.20
2023-03-12T06:04:30.115Z,1.95
2023-03-12T06:07:32.717Z,2.22
2023-03-12T06:10:38.214Z,2.50
2023-03-12T06:13:41.619Z,2.00
2023-03-12T06:16:44.405Z,2.53
2023-03-12T06:19:51.806Z,2.33
2023-03-12T06:22:56.287Z,1.63
2023-03-12T06:26:00.100Z,3.15
2023-03-12T06:29:03.264Z,2.65
2023-03-12T06:32:06.156Z,2.83
2023-03-12T06:35:09.268Z,3.03
2023-03-12T06:38:12.238Z,2.33
2023-03-12T06:41:17.332Z,2.58
2023-03-12T06:44:20.082Z,2.35
2023-03-12T06:47:23.045Z,2.53
2023-03-12T06:50:25.858Z,3.20
2023-03-12T06:53:28.544Z,3.17
2023-03-12T06:56:32.625Z,2.08
2023-03-12T06:59:35.490Z,2.17
2023-03-12T07:02:38.271Z,2.90
2023-03-12T07:05:44.804Z,2.20
2023-03-12T07:08:48.043Z,2.55
2023-03-12T07:11:50.724Z,3.08
2023-03-12T07:14:53.660Z,2.50
2023-03-12T07:18:00.698Z,2.83
2023-03-12T07:21:04.518Z,2.75
2023-03-12T07:24:08.708Z,2.60
2023-03-12T07:27:11.391Z,2.22
2023-03-12T07:30:14.190Z,2.50
2023-03-12T07:33:19.261Z,2.78
2023-03-12T07:36:22.048Z,2.67
2023-03-12T07:39:27.004Z,3.60
2023-03-12T07:42:30.019Z,3.00
2023-03-12T07:45:33.086Z,2.22
2023-03-12T07:48:35.719Z,2.67
2023-03-12T07:51:38.632Z,2.45
2023-03-12T07:54:41.561Z,3.10
2023-03-12T07:57:44.605Z,2.88
2023-03-12T08:00:47.152Z,2.33
2023-03-12T08:03:50.116Z,2.47
2023-03-12T08:06:52.983Z,2.72
2023-03-12T08:09:55.984Z,2.33
2023-03-12T08:12:58.904Z,2.22
2023-03-12T08:16:02.003Z,2.95
2023-03-12T08:19:05.106Z,2.75
2023-03-12T08:22:07.927Z,2.97
2023-03-12T08:25:11.298Z,2.47
2023-03-12T08:28:14.687Z,3.05
2023-03-12T08:31:17.450Z,2.88
2023-03-12T08:34:20.219Z,2.90
2023-03-12T08:37:23.563Z,2.55
2023-03-12T08:40:26.449Z,2.95
2023-03-12T08:43:29.656Z,2.10
2023-03-12T08:46:32.578Z,2.92
2023-03-12T08:49:35.300Z,2.97
2023-03-12T08:52:37.945Z,2.47
2023-03-12T08:55:40.837Z,3.28
2023-03-12T08:58:43.654Z,3.35
2023-03-12T09:01:46.768Z,3.63
2023-03-12T09:04:50.821Z,2.42
2023-03-12T09:07:53.973Z,3.08
2023-03-12T09:10:56.615Z,3.10
2023-03-12T09:14:42.412Z,3.10
2023-03-12T09:17:23.404Z,3.30
2023-03-12T09:20:26.367Z,2.38
2023-03-12T09:23:29.627Z,2.67
2023-03-12T09:26:34.182Z,3.60
2023-03-12T09:29:46.509Z,3.13
2023-03-12T09:32:56.492Z,2.75
2023-03-12T09:35:59.697Z,2.92
2023-03-12T09:39:09.134Z,2.63
2023-03-12T09:42:46.283Z,2.30
2023-03-12T09:45:50.961Z,1.75
2023-03-12T09:48:57.758Z,2.65
2023-03-12T09:52:02.648Z,1.83
2023-03-12T09:55:17.421Z,1.98
2023-03-12T09:58:27.487Z,1.75
2023-03-12T10:01:39.070Z,1.80
2023-03-12T10:04:58.879Z,2.90
2023-03-12T10:08:34.794Z,3.00
2023-03-12T10:11:59.340Z,1.48
2023-03-12T10:15:32.748Z,1.67
2023-03-12T10:18:58.598Z,1.60
2023-03-12T10:22:14.752Z,1.85
2023-03-12T10:25:32.376Z,2.17
2023-03-12T10:28:42.181Z,2.42
2023-03-12T10:32:10.089Z,2.17
2023-03-12T10:35:31.999Z,1.77
2023-03-12T10:38:35.000Z,1.45
2023-03-12T10:41:37.856Z,2.17
2023-03-12T10:44:40.750Z,1.30
2023-03-12T10:47:45.034Z,1.30
2023-03-12T10:51:20.369Z,1.42
2023-03-12T10:54:37.968Z,1.27
2023-03-12T10:57:42.461Z,2.40
2023-03-12T11:00:57.154Z,2.40
2023-03-12T11:04:19.171Z,1.80
2023-03-12T11:07:28.251Z,1.88
2023-03-12T11:10:44.041Z,2.25
2023-03-12T11:13:46.849Z,2.03
2023-03-12T11:16:51.008Z,2.50
2023-03-12T11:19:54.929Z,1.73
2023-03-12T11:22:57.945Z,2.33
2023-03-12T11:26:04.770Z,1.63
2023-03-12T11:29:18.946Z,1.33
2023-03-12T11:32:31.873Z,1.77
2023-03-12T11:35:47.801Z,3.63
2023-03-12T11:39:05.429Z,1.30
2023-03-12T11:45:51.692Z,1.00
2023-03-12T11:49:03.565Z,1.27
2023-03-12T11:52:14.901Z,0.98
2023-03-12T11:55:40.835Z,0.75
2023-03-12T11:59:15.950Z,0.60
2023-03-12T12:03:07.163Z,1.30
2023-03-12T12:06:39.198Z,0.70
2023-03-12T12:09:50.752Z,1.30
2023-03-12T12:13:08.607Z,0.70
2023-03-12T12:16:20.526Z,0.63
2023-03-12T12:19:27.746Z,0.60
2023-03-12T12:26:08.651Z,1.30
2023-03-12T12:29:17.476Z,0.95
2023-03-12T12:32:43.482Z,0.70
2023-03-12T12:35:46.550Z,0.63
2023-03-12T12:38:57.141Z,0.70
2023-03-12T12:42:03.436Z,0.57
2023-03-12T12:45:07.254Z,0.83
2023-03-12T12:48:12.595Z,1.67
2023-03-12T12:51:17.145Z,1.33
2023-03-12T12:54:22.859Z,1.10
2023-03-12T12:57:46.388Z,1.80
2023-03-12T13:00:59.491Z,0.98
2023-03-12T13:04:25.885Z,1.20
2023-03-12T13:07:31.921Z,0.63
2023-03-12T13:10:34.740Z,0.95
2023-03-12T13:13:37.465Z,0.63
2023-03-12T13:16:47.530Z,0.63
2023-03-12T13:20:00.694Z,0.55
2023-03-12T13:23:36.852Z,0.90
2023-03-12T13:26:54.861Z,1.60
2023-03-12T13:29:58.320Z,1.20
2023-03-12T13:33:03.728Z,0.93
2023-03-12T13:36:17.707Z,1.20
2023-03-12T13:39:30.728Z,0.70
2023-03-12T13:42:40.580Z,1.00
2023-03-12T13:46:01.857Z,1.00
2023-03-12T13:49:11.697Z,1.20
2023-03-12T13:52:14.955Z,1.10
2023-03-12T13:55:23.022Z,0.98
2023-03-12T13:58:27.893Z,1.13
2023-03-12T14:01:36.622Z,1.20
2023-03-12T14:04:42.694Z,1.00
2023-03-12T14:08:11.636Z,0.82
2023-03-12T14:11:42.138Z,0.70
2023-03-12T14:14:54.454Z,0.68
2023-03-12T14:18:13.007Z,0.73
2023-03-12T14:21:17.101Z,0.63
2023-03-12T14:24:30.461Z,0.68
2023-03-12T14:27:34.498Z,0.50
2023-03-12T14:30:45.388Z,0.73
2023-03-12T14:34:09.499Z,0.47
2023-03-12T14:37:16.616Z,0.60
2023-03-12T14:40:30.481Z,0.40
2023-03-12T14:43:35.375Z,0.50
2023-03-12T14:46:47.013Z,0.60
2023-03-12T14:49:49.843Z,0.65
2023-03-12T14:52:53.920Z,0.88
2023-03-12T14:56:06.051Z,1.58
2023-03-12T14:59:39.286Z,0.60
2023-03-12T15:02:43.547Z,0.40
2023-03-12T15:05:48.086Z,0.63
2023-03-12T15:08:50.850Z,0.40
2023-03-12T15:11:56.500Z,0.40
2023-03-12T15:15:08.412Z,0.57
2023-03-12T15:18:18.459Z,0.40
2023-03-12T15:21:21.809Z,0.40
2023-03-12T15:24:25.004Z,0.40
2023-03-12T15:27:29.024Z,0.28
2023-03-12T15:30:32.459Z,0.73
2023-03-12T15:33:35.373Z,0.93
2023-03-12T15:36:48.392Z,6.28
2023-03-12T15:39:53.010Z,3.65
2023-03-12T15:42:59.784Z,1.35
2023-03-12T15:46:04.257Z,0.68
2023-03-12T15:49:36.532Z,1.58
2023-03-12T15:52:39.256Z,0.75
2023-03-12T15:55:42.514Z,0.38
2023-03-12T15:58:47.001Z,0.60
2023-03-12T16:01:53.266Z,0.30
2023-03-12T16:04:56.132Z,0.50
2023-03-12T16:08:26.665Z,0.40
2023-03-12T16:11:31.270Z,0.40
2023-03-12T16:14:36.471Z,0.73
2023-03-12T16:17:39.264Z,0.40
2023-03-12T16:20:42.510Z,0.40
2023-03-12T16:23:45.266Z,0.40
2023-03-12T16:26:58.647Z,1.08
2023-03-12T16:30:01.864Z,0.60
2023-03-12T16:33:09.062Z,0.70
2023-03-12T16:36:17.860Z,0.40
2023-03-12T16:39:20.899Z,0.63
2023-03-12T16:42:23.666Z,0.35
2023-03-12T16:45:28.089Z,0.65
2023-03-12T16:48:30.840Z,0.50
2023-03-12T16:51:33.972Z,1.02
2023-03-12T16:54:37.123Z,1.23
2023-03-12T16:57:44.492Z,4.07
2023-03-12T17:00:47.573Z,12.45
2023-03-12T17:03:50.588Z,8.48
2023-03-12T17:06:53.557Z,1.75
2023-03-12T17:09:56.471Z,6.03
2023-03-12T17:12:59.734Z,8.82
2023-03-12T17:16:02.447Z,11.63
2023-03-12T17:19:05.260Z,1.80
2023-03-12T17:22:08.018Z,9.40
2023-03-12T17:25:24.204Z,5.68
2023-03-12T17:28:27.162Z,0.35
2023-03-12T17:31:29.905Z,1.05
2023-03-12T17:34:32.706Z,0.75
2023-03-12T17:37:35.684Z,0.40
2023-03-12T17:40:43.426Z,0.40
2023-03-12T17:43:46.355Z,0.22
2023-03-12T17:46:58.881Z,0.40
2023-03-12T17:50:03.362Z,0.57
2023-03-12T17:53:06.346Z,0.40
2023-03-12T17:56:09.447Z,0.30
2023-03-12T17:59:12.311Z,1.05
2023-03-12T18:02:15.047Z,0.30
2023-03-12T18:05:18.034Z,0.30
2023-03-12T18:08:20.821Z,0.22
2023-03-12T18:11:23.734Z,0.50
2023-03-12T18:14:26.885Z,0.55
2023-03-12T18:17:29.887Z,3.05
2023-03-12T18:20:39.099Z,2.88
2023-03-12T18:23:44.044Z,4.50
2023-03-12T18:26:50.068Z,3.15
2023-03-12T18:29:53.109Z,8.43
2023-03-12T18:32:55.953Z,7.30
2023-03-12T18:35:58.937Z,6.88
2023-03-12T18:39:04.930Z,4.53
2023-03-12T18:42:08.156Z,3.13
2023-03-12T18:45:12.281Z,1.65
2023-03-12T18:48:15.252Z,2.58
2023-03-12T18:51:18.301Z,3.80
2023-03-12T18:54:23.578Z,5.05
2023-03-12T18:57:28.161Z,6.82
2023-03-12T19:00:32.212Z,1.92
2023-03-12T19:03:36.893Z,4.45
2023-03-12T19:06:50.288Z,3.17
2023-03-12T19:09:55.000Z,2.58
2023-03-12T19:12:59.156Z,1.98
2023-03-12T19:16:05.824Z,3.28
2023-03-12T19:19:10.538Z,5.55
2023-03-12T19:22:13.821Z,5.60
2023-03-12T19:25:17.628Z,7.82
2023-03-12T19:28:22.085Z,6.72
2023-03-12T19:31:26.066Z,5.78
2023-03-12T19:34:29.529Z,6.82
2023-03-12T19:37:33.004Z,24.15
2023-03-12T19:40:38.299Z,22.55
2023-03-12T19:43:43.102Z,15.02
2023-03-12T19:46:46.647Z,16.13
2023-03-12T19:49:50.445Z,6.80
2023-03-12T19:52:54.546Z,9.77
2023-03-12T19:55:58.349Z,11.90
2023-03-12T19:59:02.248Z,11.43
2023-03-12T20:02:06.779Z,10.98
2023-03-12T20:05:12.554Z,11.02
2023-03-12T20:08:19.773Z,11.95
2023-03-12T20:11:22.970Z,10.60
2023-03-12T20:14:26.330Z,10.63
2023-03-12T20:17:30.438Z,10.68
2023-03-12T20:20:33.815Z,8.07
2023-03-12T20:23:37.601Z,6.50
2023-03-12T20:26:42.152Z,10.60
2023-03-12T20:29:47.198Z,13.13
2023-03-12T20:32:52.601Z,16.73
2023-03-12T20:35:57.193Z,12.48
2023-03-12T20:39:01.451Z,10.15
2023-03-12T20:42:05.098Z,8.95
2023-03-12T20:45:09.577Z,11.70
2023-03-12T20:48:13.243Z,10.27
2023-03-12T20:51:16.731Z,10.70
2023-03-12T20:54:19.679Z,10.98
2023-03-12T20:57:23.306Z,10.48
2023-03-12T21:00:28.974Z,5.82
2023-03-12T21:03:33.003Z,3.78
2023-03-12T21:06:36.362Z,4.10
2023-03-12T21:09:39.028Z,4.47
2023-03-12T21:12:42.330Z,7.57
2023-03-12T21:15:45.539Z,8.20
2023-03-12T21:18:48.451Z,12.63
2023-03-12T21:21:51.239Z,16.35
2023-03-12T21:24:54.358Z,18.85
2023-03-12T21:27:57.338Z,13.90
2023-03-12T21:31:12.106Z,8.38
2023-03-12T21:34:15.015Z,6.82
2023-03-12T21:37:17.759Z,11.95
2023-03-12T21:40:20.579Z,13.00
2023-03-12T21:43:23.288Z,8.75
2023-03-12T21:46:30.342Z,11.93
2023-03-12T21:49:36.908Z,14.82
2023-03-12T21:52:43.076Z,11.57
2023-03-12T21:55:55.188Z,11.07
2023-03-12T21:58:58.276Z,10.82
2023-03-12T22:02:01.128Z,7.05
2023-03-12T22:05:03.962Z,6.97
2023-03-12T22:08:06.521Z,7.28
2023-03-12T22:11:09.933Z,6.03
2023-03-12T22:14:12.619Z,6.53
2023-03-12T22:17:15.535Z,10.82
2023-03-12T22:20:18.491Z,11.43
2023-03-12T22:23:22.125Z,9.63
2023-03-12T22:26:26.951Z,8.93
2023-03-12T22:29:29.531Z,9.05
2023-03-12T22:32:32.596Z,9.05
2023-03-12T22:35:35.480Z,6.63
2023-03-12T22:38:39.053Z,6.53
2023-03-12T22:41:41.659Z,11.27
2023-03-12T22:44:44.203Z,16.42
2023-03-12T22:47:46.815Z,6.70
2023-03-12T22:50:55.865Z,6.72
2023-03-12T22:53:58.592Z,6.78
2023-03-12T22:57:01.259Z,6.60
2023-03-12T23:00:12.792Z,4.43
2023-03-12T23:03:15.408Z,5.10
2023-03-12T23:06:25.892Z,4.80
2023-03-12T23:09:28.789Z,5.10
2023-03-12T23:12:31.630Z,4.57
2023-03-12T23:15:40.897Z,4.95
2023-03-12T23:18:44.866Z,4.63
2023-03-12T23:21:47.482Z,6.32
2023-03-12T23:24:50.190Z,4.32
2023-03-12T23:27:52.709Z,5.90
2023-03-12T23:31:00.474Z,6.47
2023-03-12T23:34:03.148Z,5.78
2023-03-12T23:37:06.373Z,5.47
2023-03-12T23:40:11.325Z,14.80
2023-03-12T23:43:13.996Z,6.13
2023-03-12T23:46:19.850Z,8.48
2023-03-12T23:49:22.501Z,5.35
2023-03-12T23:52:28.382Z,5.03
2023-03-12T23:55:31.020Z,6.00
2023-03-12T23:58:33.895Z,5.75
